sensor_id;sensor_type;location;lat;lon;timestamp;P1;durP1;ratioP1;P2;durP2;ratioP2
75289;SDS011;63883;48.996;20.804;2023-09-12T00:02:06;10.75;;;7.95;;
75289;SDS011;63883;48.996;20.804;2023-09-12T00:04:32;10.73;;;7.65;;
75289;SDS011;63883;48.996;20.804;2023-09-12T00:06:58;12.55;;;7.70;;
75289;SDS011;63883;48.996;20.804;2023-09-12T00:09:23;10.68;;;7.80;;
75289;SDS011;63883;48.996;20.804;2023-09-12T00:11:49;10.70;;;7.57;;
75289;SDS011;63883;48.996;20.804;2023-09-12T00:14:15;10.40;;;7.63;;
75289;SDS011;63883;48.996;20.804;2023-09-12T00:16:41;13.13;;;7.72;;
75289;SDS011;63883;48.996;20.804;2023-09-12T00:19:07;9.70;;;7.60;;
75289;SDS011;63883;48.996;20.804;2023-09-12T00:21:33;9.98;;;7.68;;
75289;SDS011;63883;48.996;20.804;2023-09-12T00:23:59;10.40;;;7.63;;
75289;SDS011;63883;48.996;20.804;2023-09-12T00:26:24;11.57;;;7.40;;
75289;SDS011;63883;48.996;20.804;2023-09-12T00:28:50;9.65;;;7.15;;
75289;SDS011;63883;48.996;20.804;2023-09-12T00:31:16;9.77;;;7.72;;
75289;SDS011;63883;48.996;20.804;2023-09-12T00:33:41;12.68;;;8.13;;
75289;SDS011;63883;48.996;20.804;2023-09-12T00:36:07;10.32;;;7.85;;
75289;SDS011;63883;48.996;20.804;2023-09-12T00:38:33;11.48;;;8.38;;
75289;SDS011;63883;48.996;20.804;2023-09-12T00:40:58;12.07;;;8.15;;
75289;SDS011;63883;48.996;20.804;2023-09-12T00:43:24;11.02;;;8.38;;
75289;SDS011;63883;48.996;20.804;2023-09-12T00:45:50;11.50;;;8.10;;
75289;SDS011;63883;48.996;20.804;2023-09-12T00:48:16;10.40;;;7.45;;
75289;SDS011;63883;48.996;20.804;2023-09-12T00:50:43;11.48;;;8.05;;
75289;SDS011;63883;48.996;20.804;2023-09-12T00:53:11;11.35;;;7.70;;
75289;SDS011;63883;48.996;20.804;2023-09-12T00:55:37;10.45;;;7.88;;
75289;SDS011;63883;48.996;20.804;2023-09-12T00:58:08;12.50;;;8.40;;
75289;SDS011;63883;48.996;20.804;2023-09-12T01:00:34;11.73;;;8.32;;
75289;SDS011;63883;48.996;20.804;2023-09-12T01:03:00;10.57;;;7.82;;
75289;SDS011;63883;48.996;20.804;2023-09-12T01:05:26;10.90;;;8.20;;
75289;SDS011;63883;48.996;20.804;2023-09-12T01:07:52;10.73;;;8.27;;
75289;SDS011;63883;48.996;20.804;2023-09-12T01:10:18;13.18;;;8.40;;
75289;SDS011;63883;48.996;20.804;2023-09-12T01:12:44;11.73;;;8.32;;
75289;SDS011;63883;48.996;20.804;2023-09-12T01:15:09;11.20;;;8.55;;
75289;SDS011;63883;48.996;20.804;2023-09-12T01:17:40;11.32;;;8.43;;
75289;SDS011;63883;48.996;20.804;2023-09-12T01:20:07;10.85;;;7.88;;
75289;SDS011;63883;48.996;20.804;2023-09-12T01:28:25;11.40;;;8.30;;
75289;SDS011;63883;48.996;20.804;2023-09-12T01:30:57;13.13;;;8.43;;
75289;SDS011;63883;48.996;20.804;2023-09-12T01:33:25;9.52;;;7.50;;
75289;SDS011;63883;48.996;20.804;2023-09-12T01:35:51;10.18;;;8.07;;
75289;SDS011;63883;48.996;20.804;2023-09-12T01:38:17;10.95;;;7.88;;
75289;SDS011;63883;48.996;20.804;2023-09-12T01:40:48;10.85;;;7.70;;
75289;SDS011;63883;48.996;20.804;2023-09-12T01:43:16;9.32;;;7.38;;
75289;SDS011;63883;48.996;20.804;2023-09-12T01:45:50;15.80;;;8.20;;
75289;SDS011;63883;48.996;20.804;2023-09-12T01:48:20;10.48;;;7.38;;
75289;SDS011;63883;48.996;20.804;2023-09-12T01:50:48;10.02;;;7.55;;
75289;SDS011;63883;48.996;20.804;2023-09-12T01:53:15;10.38;;;7.72;;
75289;SDS011;63883;48.996;20.804;2023-09-12T01:55:42;12.88;;;8.20;;
75289;SDS011;63883;48.996;20.804;2023-09-12T01:58:10;11.25;;;7.95;;
75289;SDS011;63883;48.996;20.804;2023-09-12T02:00:37;10.23;;;8.02;;
75289;SDS011;63883;48.996;20.804;2023-09-12T02:03:03;11.73;;;8.27;;
75289;SDS011;63883;48.996;20.804;2023-09-12T02:05:29;11.65;;;8.38;;
75289;SDS011;63883;48.996;20.804;2023-09-12T02:07:55;11.30;;;8.27;;
75289;SDS011;63883;48.996;20.804;2023-09-12T02:10:21;11.60;;;8.32;;
75289;SDS011;63883;48.996;20.804;2023-09-12T02:12:47;11.30;;;8.30;;
75289;SDS011;63883;48.996;20.804;2023-09-12T02:15:13;11.90;;;8.73;;
75289;SDS011;63883;48.996;20.804;2023-09-12T02:17:39;12.07;;;8.73;;
75289;SDS011;63883;48.996;20.804;2023-09-12T02:20:06;13.25;;;9.07;;
75289;SDS011;63883;48.996;20.804;2023-09-12T02:22:33;12.63;;;8.80;;
75289;SDS011;63883;48.996;20.804;2023-09-12T02:24:59;12.27;;;7.95;;
75289;SDS011;63883;48.996;20.804;2023-09-12T02:27:25;13.32;;;8.85;;
75289;SDS011;63883;48.996;20.804;2023-09-12T02:29:50;12.07;;;8.63;;
75289;SDS011;63883;48.996;20.804;2023-09-12T02:32:16;12.40;;;8.13;;
75289;SDS011;63883;48.996;20.804;2023-09-12T02:34:41;12.05;;;8.38;;
75289;SDS011;63883;48.996;20.804;2023-09-12T02:37:07;12.75;;;8.82;;
75289;SDS011;63883;48.996;20.804;2023-09-12T02:39:33;11.40;;;8.32;;
75289;SDS011;63883;48.996;20.804;2023-09-12T02:41:59;12.07;;;8.10;;
75289;SDS011;63883;48.996;20.804;2023-09-12T02:44:24;10.93;;;8.02;;
75289;SDS011;63883;48.996;20.804;2023-09-12T02:46:50;11.13;;;7.82;;
75289;SDS011;63883;48.996;20.804;2023-09-12T02:49:16;11.90;;;8.45;;
75289;SDS011;63883;48.996;20.804;2023-09-12T02:51:42;13.30;;;9.02;;
75289;SDS011;63883;48.996;20.804;2023-09-12T02:54:07;12.27;;;8.45;;
75289;SDS011;63883;48.996;20.804;2023-09-12T02:56:33;11.73;;;8.30;;
75289;SDS011;63883;48.996;20.804;2023-09-12T02:58:59;14.10;;;8.77;;
75289;SDS011;63883;48.996;20.804;2023-09-12T03:01:25;12.10;;;8.38;;
75289;SDS011;63883;48.996;20.804;2023-09-12T03:03:53;10.43;;;8.02;;
75289;SDS011;63883;48.996;20.804;2023-09-12T03:06:19;12.13;;;8.40;;
75289;SDS011;63883;48.996;20.804;2023-09-12T03:08:45;12.32;;;8.60;;
75289;SDS011;63883;48.996;20.804;2023-09-12T03:11:13;14.75;;;8.65;;
75289;SDS011;63883;48.996;20.804;2023-09-12T03:13:40;12.40;;;8.63;;
75289;SDS011;63883;48.996;20.804;2023-09-12T03:16:10;12.45;;;8.30;;
75289;SDS011;63883;48.996;20.804;2023-09-12T03:18:36;13.45;;;8.85;;
75289;SDS011;63883;48.996;20.804;2023-09-12T03:21:02;12.32;;;8.75;;
75289;SDS011;63883;48.996;20.804;2023-09-12T03:23:28;12.45;;;8.75;;
75289;SDS011;63883;48.996;20.804;2023-09-12T03:25:54;15.05;;;9.13;;
75289;SDS011;63883;48.996;20.804;2023-09-12T03:28:19;12.13;;;8.18;;
75289;SDS011;63883;48.996;20.804;2023-09-12T03:30:45;12.75;;;9.00;;
75289;SDS011;63883;48.996;20.804;2023-09-12T03:33:11;13.10;;;8.20;;
75289;SDS011;63883;48.996;20.804;2023-09-12T03:35:36;12.68;;;8.20;;
75289;SDS011;63883;48.996;20.804;2023-09-12T03:38:02;12.05;;;8.35;;
75289;SDS011;63883;48.996;20.804;2023-09-12T03:40:28;11.35;;;8.02;;
75289;SDS011;63883;48.996;20.804;2023-09-12T03:42:57;11.18;;;8.15;;
75289;SDS011;63883;48.996;20.804;2023-09-12T03:45:23;12.52;;;8.35;;
75289;SDS011;63883;48.996;20.804;2023-09-12T03:47:49;12.60;;;8.35;;
75289;SDS011;63883;48.996;20.804;2023-09-12T03:50:15;13.00;;;8.48;;
75289;SDS011;63883;48.996;20.804;2023-09-12T03:52:40;12.98;;;8.68;;
75289;SDS011;63883;48.996;20.804;2023-09-12T03:55:06;12.68;;;8.65;;
75289;SDS011;63883;48.996;20.804;2023-09-12T03:57:32;12.35;;;8.27;;
75289;SDS011;63883;48.996;20.804;2023-09-12T03:59:58;14.13;;;8.70;;
75289;SDS011;63883;48.996;20.804;2023-09-12T04:02:23;11.75;;;8.20;;
75289;SDS011;63883;48.996;20.804;2023-09-12T04:04:49;13.63;;;8.85;;
75289;SDS011;63883;48.996;20.804;2023-09-12T04:07:15;14.80;;;8.77;;
75289;SDS011;63883;48.996;20.804;2023-09-12T04:09:41;14.57;;;8.70;;
75289;SDS011;63883;48.996;20.804;2023-09-12T04:12:06;13.18;;;8.82;;
75289;SDS011;63883;48.996;20.804;2023-09-12T04:14:34;13.57;;;9.07;;
75289;SDS011;63883;48.996;20.804;2023-09-12T04:17:00;13.38;;;8.23;;
75289;SDS011;63883;48.996;20.804;2023-09-12T04:19:26;13.35;;;8.75;;
75289;SDS011;63883;48.996;20.804;2023-09-12T04:21:52;19.35;;;9.18;;
75289;SDS011;63883;48.996;20.804;2023-09-12T04:24:18;12.75;;;8.85;;
75289;SDS011;63883;48.996;20.804;2023-09-12T04:26:43;12.75;;;9.07;;
75289;SDS011;63883;48.996;20.804;2023-09-12T04:29:10;15.98;;;9.75;;
75289;SDS011;63883;48.996;20.804;2023-09-12T04:31:36;14.30;;;9.82;;
75289;SDS011;63883;48.996;20.804;2023-09-12T04:34:02;12.70;;;8.77;;
75289;SDS011;63883;48.996;20.804;2023-09-12T04:36:27;16.60;;;9.30;;
75289;SDS011;63883;48.996;20.804;2023-09-12T04:38:53;14.98;;;9.27;;
75289;SDS011;63883;48.996;20.804;2023-09-12T04:41:19;16.20;;;9.48;;
75289;SDS011;63883;48.996;20.804;2023-09-12T04:43:45;16.30;;;9.90;;
75289;SDS011;63883;48.996;20.804;2023-09-12T04:46:11;14.23;;;9.13;;
75289;SDS011;63883;48.996;20.804;2023-09-12T04:48:37;14.63;;;10.02;;
75289;SDS011;63883;48.996;20.804;2023-09-12T04:51:03;16.30;;;9.90;;
75289;SDS011;63883;48.996;20.804;2023-09-12T04:53:29;17.13;;;10.75;;
75289;SDS011;63883;48.996;20.804;2023-09-12T04:56:02;20.08;;;10.55;;
75289;SDS011;63883;48.996;20.804;2023-09-12T04:58:29;16.25;;;10.50;;
75289;SDS011;63883;48.996;20.804;2023-09-12T05:00:55;20.20;;;12.43;;
75289;SDS011;63883;48.996;20.804;2023-09-12T05:03:21;23.70;;;12.07;;
75289;SDS011;63883;48.996;20.804;2023-09-12T05:05:48;24.60;;;12.52;;
75289;SDS011;63883;48.996;20.804;2023-09-12T05:08:15;29.90;;;13.57;;
75289;SDS011;63883;48.996;20.804;2023-09-12T05:10:45;25.27;;;13.15;;
75289;SDS011;63883;48.996;20.804;2023-09-12T05:13:12;30.73;;;14.23;;
75289;SDS011;63883;48.996;20.804;2023-09-12T05:15:38;26.15;;;13.52;;
75289;SDS011;63883;48.996;20.804;2023-09-12T05:18:05;27.77;;;13.45;;
75289;SDS011;63883;48.996;20.804;2023-09-12T05:20:32;23.58;;;13.65;;
75289;SDS011;63883;48.996;20.804;2023-09-12T05:22:58;27.90;;;13.23;;
75289;SDS011;63883;48.996;20.804;2023-09-12T05:25:23;21.80;;;12.55;;
75289;SDS011;63883;48.996;20.804;2023-09-12T05:27:49;28.17;;;14.20;;
75289;SDS011;63883;48.996;20.804;2023-09-12T05:30:15;24.73;;;13.38;;
75289;SDS011;63883;48.996;20.804;2023-09-12T05:32:41;28.45;;;12.80;;
75289;SDS011;63883;48.996;20.804;2023-09-12T05:35:07;23.85;;;12.82;;
75289;SDS011;63883;48.996;20.804;2023-09-12T05:37:32;24.95;;;12.68;;
75289;SDS011;63883;48.996;20.804;2023-09-12T05:39:58;23.40;;;12.27;;
75289;SDS011;63883;48.996;20.804;2023-09-12T05:42:24;17.13;;;11.57;;
75289;SDS011;63883;48.996;20.804;2023-09-12T05:44:49;19.70;;;11.98;;
75289;SDS011;63883;48.996;20.804;2023-09-12T05:47:21;17.70;;;11.18;;
75289;SDS011;63883;48.996;20.804;2023-09-12T05:49:47;20.45;;;12.30;;
75289;SDS011;63883;48.996;20.804;2023-09-12T05:52:13;16.95;;;11.10;;
75289;SDS011;63883;48.996;20.804;2023-09-12T05:54:39;17.63;;;12.43;;
75289;SDS011;63883;48.996;20.804;2023-09-12T05:57:06;18.92;;;11.65;;
75289;SDS011;63883;48.996;20.804;2023-09-12T05:59:35;14.88;;;10.98;;
75289;SDS011;63883;48.996;20.804;2023-09-12T06:02:02;14.73;;;10.98;;
75289;SDS011;63883;48.996;20.804;2023-09-12T06:04:29;16.40;;;11.20;;
75289;SDS011;63883;48.996;20.804;2023-09-12T06:06:55;15.27;;;10.85;;
75289;SDS011;63883;48.996;20.804;2023-09-12T06:09:20;17.10;;;11.50;;
75289;SDS011;63883;48.996;20.804;2023-09-12T06:11:46;14.23;;;10.52;;
75289;SDS011;63883;48.996;20.804;2023-09-12T06:14:11;12.90;;;10.45;;
75289;SDS011;63883;48.996;20.804;2023-09-12T06:16:37;14.48;;;10.63;;
75289;SDS011;63883;48.996;20.804;2023-09-12T06:19:03;15.45;;;11.05;;
75289;SDS011;63883;48.996;20.804;2023-09-12T06:21:29;13.00;;;10.00;;
75289;SDS011;63883;48.996;20.804;2023-09-12T06:24:10;11.98;;;9.65;;
75289;SDS011;63883;48.996;20.804;2023-09-12T06:26:40;12.60;;;10.27;;
75289;SDS011;63883;48.996;20.804;2023-09-12T06:29:06;12.38;;;10.00;;
75289;SDS011;63883;48.996;20.804;2023-09-12T06:31:32;11.93;;;9.70;;
75289;SDS011;63883;48.996;20.804;2023-09-12T06:33:58;12.25;;;9.82;;
75289;SDS011;63883;48.996;20.804;2023-09-12T06:36:27;12.13;;;9.32;;
75289;SDS011;63883;48.996;20.804;2023-09-12T06:38:55;13.52;;;9.68;;
75289;SDS011;63883;48.996;20.804;2023-09-12T06:41:21;14.00;;;10.82;;
75289;SDS011;63883;48.996;20.804;2023-09-12T06:43:47;12.98;;;9.75;;
75289;SDS011;63883;48.996;20.804;2023-09-12T06:46:13;13.77;;;10.88;;
75289;SDS011;63883;48.996;20.804;2023-09-12T06:48:39;12.73;;;10.40;;
75289;SDS011;63883;48.996;20.804;2023-09-12T06:51:05;13.38;;;10.52;;
75289;SDS011;63883;48.996;20.804;2023-09-12T06:53:33;12.75;;;10.10;;
75289;SDS011;63883;48.996;20.804;2023-09-12T06:55:59;13.52;;;10.90;;
75289;SDS011;63883;48.996;20.804;2023-09-12T06:58:25;14.48;;;10.70;;
75289;SDS011;63883;48.996;20.804;2023-09-12T07:00:51;13.80;;;10.85;;
75289;SDS011;63883;48.996;20.804;2023-09-12T07:03:17;14.68;;;11.75;;
75289;SDS011;63883;48.996;20.804;2023-09-12T07:05:43;14.98;;;10.65;;
75289;SDS011;63883;48.996;20.804;2023-09-12T07:08:09;13.82;;;10.73;;
75289;SDS011;63883;48.996;20.804;2023-09-12T07:10:35;14.45;;;10.30;;
75289;SDS011;63883;48.996;20.804;2023-09-12T07:13:01;13.60;;;10.90;;
75289;SDS011;63883;48.996;20.804;2023-09-12T07:15:28;14.45;;;10.90;;
75289;SDS011;63883;48.996;20.804;2023-09-12T07:17:53;15.43;;;11.07;;
75289;SDS011;63883;48.996;20.804;2023-09-12T07:20:19;13.73;;;10.35;;
75289;SDS011;63883;48.996;20.804;2023-09-12T07:22:45;14.20;;;11.02;;
75289;SDS011;63883;48.996;20.804;2023-09-12T07:25:13;12.88;;;10.55;;
75289;SDS011;63883;48.996;20.804;2023-09-12T07:27:39;13.68;;;10.60;;
75289;SDS011;63883;48.996;20.804;2023-09-12T07:30:07;13.00;;;10.50;;
75289;SDS011;63883;48.996;20.804;2023-09-12T07:32:33;13.80;;;10.70;;
75289;SDS011;63883;48.996;20.804;2023-09-12T07:34:58;13.27;;;10.60;;
75289;SDS011;63883;48.996;20.804;2023-09-12T07:37:24;12.20;;;9.93;;
75289;SDS011;63883;48.996;20.804;2023-09-12T07:39:50;11.82;;;10.23;;
75289;SDS011;63883;48.996;20.804;2023-09-12T07:42:15;14.13;;;10.55;;
75289;SDS011;63883;48.996;20.804;2023-09-12T07:44:41;16.27;;;11.00;;
75289;SDS011;63883;48.996;20.804;2023-09-12T07:47:07;12.15;;;9.50;;
75289;SDS011;63883;48.996;20.804;2023-09-12T07:49:33;11.73;;;9.98;;
75289;SDS011;63883;48.996;20.804;2023-09-12T07:51:58;12.75;;;10.15;;
75289;SDS011;63883;48.996;20.804;2023-09-12T07:54:24;11.88;;;9.38;;
75289;SDS011;63883;48.996;20.804;2023-09-12T07:56:49;11.88;;;9.90;;
75289;SDS011;63883;48.996;20.804;2023-09-12T07:59:15;11.98;;;9.63;;
75289;SDS011;63883;48.996;20.804;2023-09-12T08:01:42;11.70;;;9.48;;
75289;SDS011;63883;48.996;20.804;2023-09-12T08:04:07;10.52;;;9.40;;
75289;SDS011;63883;48.996;20.804;2023-09-12T08:06:33;11.98;;;9.40;;
75289;SDS011;63883;48.996;20.804;2023-09-12T08:08:59;10.70;;;9.05;;
75289;SDS011;63883;48.996;20.804;2023-09-12T08:11:25;11.43;;;9.48;;
75289;SDS011;63883;48.996;20.804;2023-09-12T08:13:52;10.75;;;8.82;;
75289;SDS011;63883;48.996;20.804;2023-09-12T08:16:18;9.93;;;8.90;;
75289;SDS011;63883;48.996;20.804;2023-09-12T08:18:46;10.65;;;8.60;;
75289;SDS011;63883;48.996;20.804;2023-09-12T08:21:12;11.75;;;10.00;;
75289;SDS011;63883;48.996;20.804;2023-09-12T08:23:38;12.18;;;9.45;;
75289;SDS011;63883;48.996;20.804;2023-09-12T08:26:03;11.23;;;8.82;;
75289;SDS011;63883;48.996;20.804;2023-09-12T08:28:29;10.05;;;8.68;;
75289;SDS011;63883;48.996;20.804;2023-09-12T08:30:54;10.55;;;8.40;;
75289;SDS011;63883;48.996;20.804;2023-09-12T08:33:20;11.98;;;8.48;;
75289;SDS011;63883;48.996;20.804;2023-09-12T08:35:46;10.20;;;8.55;;
75289;SDS011;63883;48.996;20.804;2023-09-12T08:38:12;10.45;;;8.45;;
75289;SDS011;63883;48.996;20.804;2023-09-12T08:40:38;11.60;;;8.50;;
75289;SDS011;63883;48.996;20.804;2023-09-12T08:43:03;12.25;;;8.52;;
75289;SDS011;63883;48.996;20.804;2023-09-12T08:45:29;10.45;;;8.00;;
75289;SDS011;63883;48.996;20.804;2023-09-12T08:47:56;10.82;;;8.82;;
75289;SDS011;63883;48.996;20.804;2023-09-12T08:50:25;11.05;;;8.63;;
75289;SDS011;63883;48.996;20.804;2023-09-12T08:52:54;11.05;;;8.73;;
75289;SDS011;63883;48.996;20.804;2023-09-12T08:55:19;12.07;;;9.25;;
75289;SDS011;63883;48.996;20.804;2023-09-12T08:57:46;11.32;;;8.65;;
75289;SDS011;63883;48.996;20.804;2023-09-12T09:00:15;10.07;;;8.80;;
75289;SDS011;63883;48.996;20.804;2023-09-12T09:02:42;9.93;;;8.52;;
75289;SDS011;63883;48.996;20.804;2023-09-12T09:05:09;12.13;;;8.82;;
75289;SDS011;63883;48.996;20.804;2023-09-12T09:07:40;11.52;;;8.82;;
75289;SDS011;63883;48.996;20.804;2023-09-12T09:10:07;10.55;;;8.70;;
75289;SDS011;63883;48.996;20.804;2023-09-12T09:12:35;10.85;;;8.60;;
75289;SDS011;63883;48.996;20.804;2023-09-12T09:15:24;9.73;;;8.68;;
75289;SDS011;63883;48.996;20.804;2023-09-12T09:17:53;12.38;;;8.95;;
75289;SDS011;63883;48.996;20.804;2023-09-12T09:23:06;10.43;;;8.25;;
75289;SDS011;63883;48.996;20.804;2023-09-12T09:25:36;10.32;;;8.48;;
75289;SDS011;63883;48.996;20.804;2023-09-12T09:28:05;11.43;;;8.70;;
75289;SDS011;63883;48.996;20.804;2023-09-12T09:30:41;10.18;;;8.57;;
75289;SDS011;63883;48.996;20.804;2023-09-12T09:33:09;10.30;;;8.70;;
75289;SDS011;63883;48.996;20.804;2023-09-12T09:35:35;10.25;;;8.13;;
75289;SDS011;63883;48.996;20.804;2023-09-12T09:38:02;10.95;;;8.60;;
75289;SDS011;63883;48.996;20.804;2023-09-12T09:40:30;9.95;;;8.00;;
75289;SDS011;63883;48.996;20.804;2023-09-12T09:43:00;10.38;;;8.23;;
75289;SDS011;63883;48.996;20.804;2023-09-12T09:45:28;8.32;;;7.53;;
75289;SDS011;63883;48.996;20.804;2023-09-12T09:50:33;8.40;;;7.40;;
75289;SDS011;63883;48.996;20.804;2023-09-12T09:53:02;8.70;;;7.72;;
75289;SDS011;63883;48.996;20.804;2023-09-12T09:55:30;8.55;;;7.70;;
75289;SDS011;63883;48.996;20.804;2023-09-12T09:57:56;8.23;;;7.43;;
75289;SDS011;63883;48.996;20.804;2023-09-12T10:00:22;11.45;;;7.18;;
75289;SDS011;63883;48.996;20.804;2023-09-12T10:02:49;10.10;;;7.55;;
75289;SDS011;63883;48.996;20.804;2023-09-12T10:05:16;8.20;;;7.28;;
75289;SDS011;63883;48.996;20.804;2023-09-12T10:07:43;8.50;;;7.68;;
75289;SDS011;63883;48.996;20.804;2023-09-12T10:10:12;9.25;;;7.18;;
75289;SDS011;63883;48.996;20.804;2023-09-12T10:12:43;11.90;;;7.35;;
75289;SDS011;63883;48.996;20.804;2023-09-12T10:15:13;7.53;;;6.25;;
75289;SDS011;63883;48.996;20.804;2023-09-12T10:20:08;7.53;;;6.50;;
75289;SDS011;63883;48.996;20.804;2023-09-12T10:22:43;8.52;;;6.43;;
75289;SDS011;63883;48.996;20.804;2023-09-12T10:25:21;10.70;;;6.50;;
75289;SDS011;63883;48.996;20.804;2023-09-12T10:30:14;9.07;;;5.93;;
75289;SDS011;63883;48.996;20.804;2023-09-12T10:32:40;11.63;;;6.35;;
75289;SDS011;63883;48.996;20.804;2023-09-12T10:35:09;8.38;;;6.22;;
75289;SDS011;63883;48.996;20.804;2023-09-12T10:37:35;10.43;;;6.10;;
75289;SDS011;63883;48.996;20.804;2023-09-12T10:40:04;10.27;;;6.00;;
75289;SDS011;63883;48.996;20.804;2023-09-12T10:42:33;9.55;;;5.97;;
75289;SDS011;63883;48.996;20.804;2023-09-12T10:45:00;7.32;;;6.10;;
75289;SDS011;63883;48.996;20.804;2023-09-12T10:47:29;8.55;;;5.93;;
75289;SDS011;63883;48.996;20.804;2023-09-12T10:49:56;13.25;;;5.93;;
75289;SDS011;63883;48.996;20.804;2023-09-12T10:52:28;12.70;;;5.80;;
75289;SDS011;63883;48.996;20.804;2023-09-12T10:54:54;13.15;;;5.68;;
75289;SDS011;63883;48.996;20.804;2023-09-12T10:57:21;10.20;;;5.88;;
75289;SDS011;63883;48.996;20.804;2023-09-12T11:02:31;9.45;;;6.03;;
75289;SDS011;63883;48.996;20.804;2023-09-12T11:05:02;9.55;;;5.70;;
75289;SDS011;63883;48.996;20.804;2023-09-12T11:07:32;9.70;;;5.80;;
75289;SDS011;63883;48.996;20.804;2023-09-12T11:12:38;8.10;;;5.68;;
75289;SDS011;63883;48.996;20.804;2023-09-12T11:15:04;10.68;;;5.53;;
75289;SDS011;63883;48.996;20.804;2023-09-12T11:17:37;11.40;;;5.65;;
75289;SDS011;63883;48.996;20.804;2023-09-12T11:20:03;10.90;;;5.60;;
75289;SDS011;63883;48.996;20.804;2023-09-12T11:22:42;9.88;;;5.45;;
75289;SDS011;63883;48.996;20.804;2023-09-12T11:27:45;10.65;;;5.65;;
75289;SDS011;63883;48.996;20.804;2023-09-12T11:30:21;9.25;;;5.38;;
75289;SDS011;63883;48.996;20.804;2023-09-12T11:32:51;11.55;;;5.82;;
75289;SDS011;63883;48.996;20.804;2023-09-12T11:35:28;11.75;;;5.13;;
75289;SDS011;63883;48.996;20.804;2023-09-12T11:37:55;10.68;;;5.05;;
75289;SDS011;63883;48.996;20.804;2023-09-12T11:43:00;11.07;;;4.32;;
75289;SDS011;63883;48.996;20.804;2023-09-12T11:45:26;13.60;;;4.63;;
75289;SDS011;63883;48.996;20.804;2023-09-12T11:47:53;23.00;;;5.43;;
75289;SDS011;63883;48.996;20.804;2023-09-12T11:50:41;12.80;;;4.50;;
75289;SDS011;63883;48.996;20.804;2023-09-12T11:53:07;11.95;;;4.82;;
75289;SDS011;63883;48.996;20.804;2023-09-12T11:55:46;11.48;;;4.43;;
75289;SDS011;63883;48.996;20.804;2023-09-12T11:58:14;12.80;;;5.05;;
75289;SDS011;63883;48.996;20.804;2023-09-12T12:00:44;11.15;;;5.45;;
75289;SDS011;63883;48.996;20.804;2023-09-12T12:03:12;13.65;;;4.70;;
75289;SDS011;63883;48.996;20.804;2023-09-12T12:05:38;13.75;;;4.95;;
75289;SDS011;63883;48.996;20.804;2023-09-12T12:08:09;12.82;;;5.22;;
75289;SDS011;63883;48.996;20.804;2023-09-12T12:10:36;13.77;;;5.35;;
75289;SDS011;63883;48.996;20.804;2023-09-12T12:13:04;11.48;;;4.88;;
75289;SDS011;63883;48.996;20.804;2023-09-12T12:15:30;14.30;;;5.20;;
75289;SDS011;63883;48.996;20.804;2023-09-12T12:17:57;11.38;;;5.07;;
75289;SDS011;63883;48.996;20.804;2023-09-12T12:20:23;11.43;;;5.05;;
75289;SDS011;63883;48.996;20.804;2023-09-12T12:22:49;11.15;;;4.68;;
75289;SDS011;63883;48.996;20.804;2023-09-12T12:25:18;11.60;;;4.75;;
75289;SDS011;63883;48.996;20.804;2023-09-12T12:27:44;10.68;;;5.22;;
75289;SDS011;63883;48.996;20.804;2023-09-12T12:30:10;12.50;;;5.35;;
75289;SDS011;63883;48.996;20.804;2023-09-12T12:32:41;10.18;;;5.03;;
75289;SDS011;63883;48.996;20.804;2023-09-12T12:35:07;12.35;;;5.43;;
75289;SDS011;63883;48.996;20.804;2023-09-12T12:37:34;10.98;;;5.18;;
75289;SDS011;63883;48.996;20.804;2023-09-12T12:40:01;11.82;;;5.60;;
75289;SDS011;63883;48.996;20.804;2023-09-12T12:44:59;14.02;;;4.60;;
75289;SDS011;63883;48.996;20.804;2023-09-12T12:47:25;12.35;;;5.15;;
75289;SDS011;63883;48.996;20.804;2023-09-12T12:49:53;13.75;;;4.97;;
75289;SDS011;63883;48.996;20.804;2023-09-12T12:52:25;12.23;;;5.03;;
75289;SDS011;63883;48.996;20.804;2023-09-12T12:54:51;10.77;;;5.05;;
75289;SDS011;63883;48.996;20.804;2023-09-12T12:57:19;11.73;;;5.38;;
75289;SDS011;63883;48.996;20.804;2023-09-12T12:59:46;11.02;;;5.10;;
75289;SDS011;63883;48.996;20.804;2023-09-12T13:02:16;13.35;;;5.53;;
75289;SDS011;63883;48.996;20.804;2023-09-12T13:04:42;11.75;;;5.20;;
75289;SDS011;63883;48.996;20.804;2023-09-12T13:07:08;14.18;;;5.43;;
75289;SDS011;63883;48.996;20.804;2023-09-12T13:09:33;13.23;;;5.10;;
75289;SDS011;63883;48.996;20.804;2023-09-12T13:11:59;9.57;;;5.45;;
75289;SDS011;63883;48.996;20.804;2023-09-12T13:14:25;12.55;;;5.13;;
75289;SDS011;63883;48.996;20.804;2023-09-12T13:16:57;9.82;;;5.35;;
75289;SDS011;63883;48.996;20.804;2023-09-12T13:19:23;11.35;;;5.55;;
75289;SDS011;63883;48.996;20.804;2023-09-12T13:21:50;11.50;;;5.38;;
75289;SDS011;63883;48.996;20.804;2023-09-12T13:24:15;10.18;;;5.13;;
75289;SDS011;63883;48.996;20.804;2023-09-12T13:26:41;13.23;;;5.13;;
75289;SDS011;63883;48.996;20.804;2023-09-12T13:29:07;10.13;;;5.15;;
75289;SDS011;63883;48.996;20.804;2023-09-12T13:31:33;8.88;;;5.30;;
75289;SDS011;63883;48.996;20.804;2023-09-12T13:33:58;13.00;;;5.53;;
75289;SDS011;63883;48.996;20.804;2023-09-12T13:36:24;13.45;;;5.30;;
75289;SDS011;63883;48.996;20.804;2023-09-12T13:38:50;17.15;;;5.38;;
75289;SDS011;63883;48.996;20.804;2023-09-12T13:41:17;16.27;;;5.22;;
75289;SDS011;63883;48.996;20.804;2023-09-12T13:43:43;11.57;;;5.57;;
75289;SDS011;63883;48.996;20.804;2023-09-12T13:46:12;13.15;;;5.38;;
75289;SDS011;63883;48.996;20.804;2023-09-12T13:48:38;10.75;;;5.30;;
75289;SDS011;63883;48.996;20.804;2023-09-12T13:51:04;9.63;;;5.03;;
75289;SDS011;63883;48.996;20.804;2023-09-12T13:53:29;11.73;;;5.53;;
75289;SDS011;63883;48.996;20.804;2023-09-12T13:55:55;9.07;;;4.95;;
75289;SDS011;63883;48.996;20.804;2023-09-12T13:58:22;12.60;;;5.72;;
75289;SDS011;63883;48.996;20.804;2023-09-12T14:00:48;12.55;;;5.18;;
75289;SDS011;63883;48.996;20.804;2023-09-12T14:03:14;14.25;;;6.22;;
75289;SDS011;63883;48.996;20.804;2023-09-12T14:05:40;11.85;;;5.78;;
75289;SDS011;63883;48.996;20.804;2023-09-12T14:08:06;11.07;;;5.60;;
75289;SDS011;63883;48.996;20.804;2023-09-12T14:10:32;13.85;;;5.30;;
75289;SDS011;63883;48.996;20.804;2023-09-12T14:12:57;11.65;;;5.28;;
75289;SDS011;63883;48.996;20.804;2023-09-12T14:15:23;13.18;;;5.22;;
75289;SDS011;63883;48.996;20.804;2023-09-12T14:17:48;14.43;;;6.07;;
75289;SDS011;63883;48.996;20.804;2023-09-12T14:20:14;12.35;;;5.70;;
75289;SDS011;63883;48.996;20.804;2023-09-12T14:22:43;9.60;;;5.88;;
75289;SDS011;63883;48.996;20.804;2023-09-12T14:25:10;8.45;;;5.72;;
75289;SDS011;63883;48.996;20.804;2023-09-12T14:27:42;18.30;;;5.47;;
75289;SDS011;63883;48.996;20.804;2023-09-12T14:30:12;11.18;;;5.80;;
75289;SDS011;63883;48.996;20.804;2023-09-12T14:32:39;9.77;;;5.35;;
75289;SDS011;63883;48.996;20.804;2023-09-12T14:35:05;9.95;;;5.40;;
75289;SDS011;63883;48.996;20.804;2023-09-12T14:37:31;11.63;;;5.57;;
75289;SDS011;63883;48.996;20.804;2023-09-12T14:39:57;12.30;;;5.75;;
75289;SDS011;63883;48.996;20.804;2023-09-12T14:42:22;10.45;;;5.55;;
75289;SDS011;63883;48.996;20.804;2023-09-12T14:44:53;15.25;;;5.50;;
75289;SDS011;63883;48.996;20.804;2023-09-12T14:47:22;10.98;;;5.72;;
75289;SDS011;63883;48.996;20.804;2023-09-12T14:49:48;10.32;;;5.50;;